Time;durP1;ratioP1;P1;durP2;ratioP2;P2;SDS_P1;SDS_P2;PMS_P1;PMS_P2;Temp;Humidity;BMP_temperature;BMP_pressure;BME280_temperature;BME280_humidity;BME280_pressure;Samples;Min_cycle;Max_cycle;Signal;HPM_P1;HPM_P2
2022/05/10 00:02:05;;;;;;;6.80;3.10;;;;;;;;;;4969487;28;20384;-64
2022/05/10 00:04:30;;;;;;;6.85;3.03;;;;;;;;;;4971141;28;20388;-64
2022/05/10 00:06:56;;;;;;;6.05;3.00;;;;;;;;;;4969573;28;20092;-64
2022/05/10 00:09:27;;;;;;;4.75;2.78;;;;;;;;;;4970374;28;20058;-63
2022/05/10 00:11:53;;;;;;;6.63;2.63;;;;;;;;;;4969769;28;20045;-64
2022/05/10 00:14:18;;;;;;;3.67;2.58;;;;;;;;;;4970728;28;20034;-64
2022/05/10 00:16:44;;;;;;;5.05;2.47;;;;;;;;;;4970836;28;20468;-63
2022/05/10 00:19:13;;;;;;;4.38;2.72;;;;;;;;;;4951726;28;20433;-63
2022/05/10 00:21:38;;;;;;;4.30;2.40;;;;;;;;;;4969705;28;20484;-63
2022/05/10 00:24:04;;;;;;;5.20;2.35;;;;;;;;;;4969279;28;20112;-63
2022/05/10 00:26:29;;;;;;;4.35;2.33;;;;;;;;;;4969410;28;20503;-63
2022/05/10 00:28:55;;;;;;;4.28;2.25;;;;;;;;;;4969266;28;20460;-62
2022/05/10 00:31:20;;;;;;;6.70;3.15;;;;;;;;;;4969389;28;20056;-63
2022/05/10 00:33:46;;;;;;;4.38;2.35;;;;;;;;;;4969783;28;20340;-64
2022/05/10 00:36:12;;;;;;;3.78;2.20;;;;;;;;;;4969663;28;20333;-64
2022/05/10 00:38:41;;;;;;;4.28;2.47;;;;;;;;;;4969710;28;20044;-63
2022/05/10 00:41:25;;;;;;;5.40;2.20;;;;;;;;;;4969588;28;20365;-63
2022/05/10 00:43:55;;;;;;;5.68;2.90;;;;;;;;;;4968603;28;20413;-63
2022/05/10 00:46:54;;;;;;;4.22;2.15;;;;;;;;;;4969847;28;20437;-63
2022/05/10 00:49:25;;;;;;;3.63;2.10;;;;;;;;;;4944688;28;20424;-63
2022/05/10 00:51:55;;;;;;;3.30;1.92;;;;;;;;;;4951917;28;20333;-62
2022/05/10 00:54:29;;;;;;;4.05;2.05;;;;;;;;;;4968068;28;20444;-64
2022/05/10 00:57:14;;;;;;;6.10;2.30;;;;;;;;;;4969225;28;20455;-63
2022/05/10 00:59:51;;;;;;;4.03;2.00;;;;;;;;;;4966307;28;20317;-64
2022/05/10 01:02:46;;;;;;;8.32;2.03;;;;;;;;;;4948258;28;20329;-63
2022/05/10 01:05:24;;;;;;;3.92;2.15;;;;;;;;;;4932651;28;20426;-63
2022/05/10 01:07:55;;;;;;;3.75;2.13;;;;;;;;;;4949926;28;20477;-63
2022/05/10 01:10:31;;;;;;;3.97;2.10;;;;;;;;;;4919796;28;20723;-64
2022/05/10 01:13:06;;;;;;;3.85;1.90;;;;;;;;;;4932596;28;20336;-63
2022/05/10 01:15:33;;;;;;;3.80;1.98;;;;;;;;;;4949703;28;20445;-63
2022/05/10 01:17:58;;;;;;;3.47;2.08;;;;;;;;;;4950158;28;20045;-64
2022/05/10 01:20:51;;;;;;;3.95;2.00;;;;;;;;;;4951445;28;20026;-63
2022/05/10 01:23:26;;;;;;;6.40;2.08;;;;;;;;;;4931605;28;20054;-64
2022/05/10 01:26:16;;;;;;;4.97;2.03;;;;;;;;;;4953698;28;20445;-63
2022/05/10 01:28:45;;;;;;;3.90;2.03;;;;;;;;;;4935203;28;20365;-64
2022/05/10 01:31:18;;;;;;;3.53;1.83;;;;;;;;;;4935113;28;20357;-62
2022/05/10 01:33:48;;;;;;;5.45;2.42;;;;;;;;;;4952838;28;20458;-64
2022/05/10 01:36:25;;;;;;;4.60;2.25;;;;;;;;;;4953851;28;20496;-64
2022/05/10 01:39:15;;;;;;;4.22;1.98;;;;;;;;;;4935292;28;20339;-64
2022/05/10 01:41:54;;;;;;;5.13;2.13;;;;;;;;;;4952598;28;20356;-64
2022/05/10 01:44:43;;;;;;;2.30;1.63;;;;;;;;;;4935142;28;20026;-64
2022/05/10 01:47:20;;;;;;;2.50;1.40;;;;;;;;;;4935301;28;20368;-64
2022/05/10 01:49:55;;;;;;;2.22;1.50;;;;;;;;;;4935179;28;20037;-63
2022/05/10 01:52:24;;;;;;;3.00;1.52;;;;;;;;;;4935782;28;20337;-63
2022/05/10 01:55:19;;;;;;;2.40;1.70;;;;;;;;;;4934893;28;20439;-64
2022/05/10 01:57:44;;;;;;;2.65;2.03;;;;;;;;;;4952676;28;20473;-63
2022/05/10 02:00:12;;;;;;;3.65;1.90;;;;;;;;;;4952468;28;20545;-64
2022/05/10 02:02:42;;;;;;;2.42;1.38;;;;;;;;;;4954038;28;20101;-64
2022/05/10 02:05:10;;;;;;;5.00;1.83;;;;;;;;;;4935616;28;20453;-63
2022/05/10 02:07:36;;;;;;;3.92;1.75;;;;;;;;;;4952186;28;20348;-63
2022/05/10 02:10:12;;;;;;;3.50;1.70;;;;;;;;;;4934642;28;20447;-63
2022/05/10 02:12:40;;;;;;;4.10;1.70;;;;;;;;;;4934751;28;20026;-63
2022/05/10 02:15:20;;;;;;;3.13;1.98;;;;;;;;;;4934407;28;20444;-62
2022/05/10 02:17:57;;;;;;;3.30;1.70;;;;;;;;;;4951408;28;20468;-63
2022/05/10 02:20:29;;;;;;;3.20;1.60;;;;;;;;;;4952134;28;20323;-62
2022/05/10 02:23:03;;;;;;;2.05;1.48;;;;;;;;;;4951993;28;20479;-63
2022/05/10 02:25:38;;;;;;;2.63;1.60;;;;;;;;;;4934888;28;20022;-63
2022/05/10 02:28:19;;;;;;;3.53;1.67;;;;;;;;;;4951406;28;20325;-63
2022/05/10 02:30:45;;;;;;;2.53;1.70;;;;;;;;;;4935836;28;20326;-63
2022/05/10 02:33:13;;;;;;;3.35;1.55;;;;;;;;;;4934269;28;20413;-63
2022/05/10 02:35:47;;;;;;;2.37;1.30;;;;;;;;;;4950877;28;20399;-63
2022/05/10 02:38:16;;;;;;;2.70;1.50;;;;;;;;;;4934653;28;20734;-65
2022/05/10 02:40:43;;;;;;;2.28;1.50;;;;;;;;;;4934130;28;20454;-64
2022/05/10 02:43:20;;;;;;;4.22;1.90;;;;;;;;;;4951577;28;20051;-65
2022/05/10 02:45:46;;;;;;;2.88;1.80;;;;;;;;;;4934810;28;20368;-63
2022/05/10 02:48:22;;;;;;;1.75;1.35;;;;;;;;;;4951148;28;20350;-63
2022/05/10 02:50:47;;;;;;;1.85;1.42;;;;;;;;;;4951513;28;20339;-63
2022/05/10 02:53:12;;;;;;;2.85;1.40;;;;;;;;;;4952654;28;20425;-63
2022/05/10 02:55:43;;;;;;;3.70;1.73;;;;;;;;;;4952657;28;20050;-63
2022/05/10 02:58:16;;;;;;;3.90;1.52;;;;;;;;;;4933778;28;20481;-63
2022/05/10 03:00:42;;;;;;;3.03;1.95;;;;;;;;;;4951387;28;20433;-63
2022/05/10 03:03:10;;;;;;;2.85;1.63;;;;;;;;;;4950862;28;20440;-63
2022/05/10 03:05:35;;;;;;;2.83;1.63;;;;;;;;;;4933578;28;20089;-64
2022/05/10 03:08:00;;;;;;;4.78;1.90;;;;;;;;;;4951284;28;20429;-63
2022/05/10 03:10:26;;;;;;;3.50;1.33;;;;;;;;;;4950996;28;20413;-64
2022/05/10 03:12:51;;;;;;;4.25;1.92;;;;;;;;;;4951461;28;20425;-63
2022/05/10 03:15:16;;;;;;;3.75;1.60;;;;;;;;;;4951297;28;20429;-64
2022/05/10 03:17:42;;;;;;;2.38;1.58;;;;;;;;;;4950837;28;20650;-63
2022/05/10 03:20:08;;;;;;;2.17;1.65;;;;;;;;;;4950733;28;20517;-63
2022/05/10 03:22:33;;;;;;;3.20;1.70;;;;;;;;;;4951918;28;20408;-64
2022/05/10 03:24:58;;;;;;;4.40;1.92;;;;;;;;;;4950728;28;20299;-64
2022/05/10 03:27:24;;;;;;;1.92;1.40;;;;;;;;;;4950593;28;20380;-63
2022/05/10 03:29:49;;;;;;;2.72;1.58;;;;;;;;;;4951417;28;20275;-62
2022/05/10 03:32:14;;;;;;;2.40;1.40;;;;;;;;;;4952233;28;20388;-63
2022/05/10 03:34:55;;;;;;;3.35;1.50;;;;;;;;;;4950827;28;20030;-63
2022/05/10 03:37:24;;;;;;;3.30;1.65;;;;;;;;;;4950539;28;20042;-63
2022/05/10 03:39:49;;;;;;;1.65;1.17;;;;;;;;;;4951138;28;20472;-62
2022/05/10 03:42:14;;;;;;;2.88;1.70;;;;;;;;;;4950537;28;20417;-64
2022/05/10 03:44:40;;;;;;;2.65;1.42;;;;;;;;;;4950986;28;20362;-62
2022/05/10 03:47:08;;;;;;;2.25;1.48;;;;;;;;;;4950607;28;20400;-62
2022/05/10 03:49:33;;;;;;;2.50;1.70;;;;;;;;;;4933154;28;20373;-63
2022/05/10 03:51:59;;;;;;;4.03;2.05;;;;;;;;;;4950108;28;20373;-62
2022/05/10 03:54:24;;;;;;;3.35;1.65;;;;;;;;;;4950320;28;20430;-62
2022/05/10 03:56:50;;;;;;;2.97;1.50;;;;;;;;;;4950226;28;20080;-64
2022/05/10 03:59:17;;;;;;;2.85;1.67;;;;;;;;;;4950269;28;20366;-64
2022/05/10 04:01:43;;;;;;;3.05;2.00;;;;;;;;;;4950328;28;20360;-64
2022/05/10 04:04:08;;;;;;;3.80;1.77;;;;;;;;;;4950430;28;20386;-62
2022/05/10 04:06:33;;;;;;;2.00;1.50;;;;;;;;;;4950459;28;20115;-63
2022/05/10 04:08:59;;;;;;;3.38;1.55;;;;;;;;;;4950199;28;20769;-62
2022/05/10 04:11:24;;;;;;;3.75;1.40;;;;;;;;;;4950433;28;20457;-64
2022/05/10 04:13:49;;;;;;;1.77;1.25;;;;;;;;;;4950533;28;20453;-64
2022/05/10 04:16:16;;;;;;;2.67;1.60;;;;;;;;;;4949638;28;20561;-65
2022/05/10 04:18:41;;;;;;;3.08;1.42;;;;;;;;;;4949946;28;20030;-64
2022/05/10 04:21:08;;;;;;;2.10;1.55;;;;;;;;;;4950998;28;20433;-62
2022/05/10 04:23:33;;;;;;;4.53;1.60;;;;;;;;;;4951185;28;20330;-64
2022/05/10 04:26:06;;;;;;;2.72;1.48;;;;;;;;;;4950433;28;20358;-64
2022/05/10 04:28:34;;;;;;;2.13;1.50;;;;;;;;;;4949868;28;20504;-63
2022/05/10 04:30:59;;;;;;;2.60;1.48;;;;;;;;;;4950351;28;20329;-62
2022/05/10 04:33:25;;;;;;;2.65;1.40;;;;;;;;;;4950041;28;20314;-63
2022/05/10 04:35:51;;;;;;;1.50;1.17;;;;;;;;;;4949927;28;20535;-62
2022/05/10 04:38:16;;;;;;;3.30;1.65;;;;;;;;;;4949508;28;20044;-63
2022/05/10 04:43:25;;;;;;;2.63;1.50;;;;;;;;;;4949539;28;20404;-63
2022/05/10 04:45:51;;;;;;;1.88;1.50;;;;;;;;;;4950487;28;20030;-64
2022/05/10 04:48:16;;;;;;;1.90;1.30;;;;;;;;;;4949577;28;20393;-63
2022/05/10 04:50:41;;;;;;;3.20;1.67;;;;;;;;;;4950293;28;20337;-63
2022/05/10 04:53:08;;;;;;;2.67;1.27;;;;;;;;;;4949493;28;20021;-63
2022/05/10 04:55:34;;;;;;;4.28;1.50;;;;;;;;;;4932725;28;20431;-63
2022/05/10 04:57:59;;;;;;;5.32;1.42;;;;;;;;;;4950291;28;20025;-64
2022/05/10 05:00:26;;;;;;;1.88;1.30;;;;;;;;;;4953157;28;20365;-64
2022/05/10 05:02:51;;;;;;;2.13;1.13;;;;;;;;;;4953837;28;20425;-63
2022/05/10 05:05:16;;;;;;;2.05;1.38;;;;;;;;;;4952787;28;20449;-63
2022/05/10 05:07:43;;;;;;;3.97;1.48;;;;;;;;;;4953486;28;20520;-63
2022/05/10 05:10:09;;;;;;;2.28;1.33;;;;;;;;;;4953889;28;20030;-62
2022/05/10 05:12:35;;;;;;;1.75;1.15;;;;;;;;;;4953507;28;20034;-64
2022/05/10 05:15:01;;;;;;;2.00;1.30;;;;;;;;;;4953207;28;20053;-63
2022/05/10 05:17:26;;;;;;;2.28;1.30;;;;;;;;;;4953113;28;20472;-63
2022/05/10 05:19:51;;;;;;;1.98;1.15;;;;;;;;;;4953587;28;20410;-62
2022/05/10 05:22:17;;;;;;;3.60;1.27;;;;;;;;;;4952778;28;20356;-63
2022/05/10 05:24:42;;;;;;;1.73;1.27;;;;;;;;;;4953066;28;20392;-63
2022/05/10 05:27:07;;;;;;;1.85;1.20;;;;;;;;;;4952762;28;20429;-64
2022/05/10 05:29:33;;;;;;;2.85;1.35;;;;;;;;;;4954468;28;20034;-63
2022/05/10 05:32:00;;;;;;;1.30;1.15;;;;;;;;;;4935647;28;20468;-63
2022/05/10 05:34:25;;;;;;;3.08;1.70;;;;;;;;;;4935450;28;20468;-63
2022/05/10 05:39:34;;;;;;;4.68;1.52;;;;;;;;;;4952899;28;20061;-64
2022/05/10 05:42:00;;;;;;;2.03;1.50;;;;;;;;;;4952598;28;20469;-63
2022/05/10 05:44:26;;;;;;;2.67;1.27;;;;;;;;;;4954507;28;20314;-64
2022/05/10 05:46:51;;;;;;;2.03;1.08;;;;;;;;;;4953240;28;20425;-63
2022/05/10 05:49:16;;;;;;;2.75;1.17;;;;;;;;;;4952432;28;20469;-64
2022/05/10 05:51:42;;;;;;;2.83;1.35;;;;;;;;;;4953044;28;20030;-63
2022/05/10 05:54:09;;;;;;;4.05;1.63;;;;;;;;;;4953368;28;20026;-62
2022/05/10 05:56:35;;;;;;;5.10;1.23;;;;;;;;;;4952998;28;20048;-63
2022/05/10 05:59:00;;;;;;;2.35;1.30;;;;;;;;;;4952860;28;20454;-64
2022/05/10 06:01:26;;;;;;;2.35;1.35;;;;;;;;;;4953851;28;20487;-64
2022/05/10 06:03:51;;;;;;;2.15;1.30;;;;;;;;;;4934370;28;20444;-63
2022/05/10 06:06:17;;;;;;;1.67;1.10;;;;;;;;;;4953554;28;20417;-63
2022/05/10 06:08:42;;;;;;;2.92;1.40;;;;;;;;;;4952007;28;20421;-65
2022/05/10 06:11:08;;;;;;;2.25;1.13;;;;;;;;;;4952463;28;20615;-63
2022/05/10 06:13:36;;;;;;;2.67;1.23;;;;;;;;;;4952295;28;20034;-63
2022/05/10 06:16:05;;;;;;;2.03;1.17;;;;;;;;;;4952419;28;20326;-63
2022/05/10 06:18:31;;;;;;;2.30;1.33;;;;;;;;;;4932748;28;20438;-64
2022/05/10 06:20:56;;;;;;;2.55;1.30;;;;;;;;;;4932525;28;20354;-65
2022/05/10 06:23:22;;;;;;;2.35;1.30;;;;;;;;;;4933172;28;20361;-63
2022/05/10 06:25:47;;;;;;;1.85;1.35;;;;;;;;;;4932772;28;20449;-63
2022/05/10 06:28:13;;;;;;;3.30;1.50;;;;;;;;;;4928818;28;20042;-62
2022/05/10 06:30:38;;;;;;;3.20;1.55;;;;;;;;;;4932964;28;20353;-64
2022/05/10 06:33:03;;;;;;;3.13;1.55;;;;;;;;;;4932258;28;20370;-64
2022/05/10 06:35:29;;;;;;;2.38;1.33;;;;;;;;;;4932057;28;20389;-63
2022/05/10 06:40:39;;;;;;;5.95;1.55;;;;;;;;;;4932140;28;20410;-63
2022/05/10 06:43:04;;;;;;;3.78;1.90;;;;;;;;;;4932271;28;20427;-63
2022/05/10 06:45:30;;;;;;;2.45;1.40;;;;;;;;;;4931857;28;20090;-63
2022/05/10 06:47:55;;;;;;;2.03;1.30;;;;;;;;;;4932359;28;20466;-63
2022/05/10 06:50:23;;;;;;;2.47;1.33;;;;;;;;;;4932052;28;20434;-62
2022/05/10 06:52:54;;;;;;;2.20;1.20;;;;;;;;;;4932527;28;20508;-63
2022/05/10 06:55:20;;;;;;;3.03;1.40;;;;;;;;;;4932445;28;20034;-63
2022/05/10 06:57:45;;;;;;;3.53;1.65;;;;;;;;;;4932462;28;20472;-63
2022/05/10 07:00:14;;;;;;;1.38;1.02;;;;;;;;;;4932341;28;20394;-63
2022/05/10 07:02:39;;;;;;;1.90;1.25;;;;;;;;;;4933452;28;20316;-63
2022/05/10 07:05:06;;;;;;;5.63;1.55;;;;;;;;;;4931877;28;20362;-63
2022/05/10 07:07:32;;;;;;;1.85;1.00;;;;;;;;;;4931876;28;20442;-62
2022/05/10 07:09:57;;;;;;;4.38;1.48;;;;;;;;;;4913918;28;20497;-63
2022/05/10 07:12:22;;;;;;;1.85;1.30;;;;;;;;;;4933450;28;20381;-64
2022/05/10 07:14:49;;;;;;;1.35;0.88;;;;;;;;;;4931892;28;20100;-63
2022/05/10 07:17:15;;;;;;;3.60;1.38;;;;;;;;;;4940946;28;20519;-63
2022/05/10 07:19:40;;;;;;;1.58;1.17;;;;;;;;;;4951200;28;20380;-63
2022/05/10 07:22:07;;;;;;;1.33;0.90;;;;;;;;;;4950150;28;20413;-62
2022/05/10 07:24:32;;;;;;;1.98;1.15;;;;;;;;;;4950971;28;20488;-62
2022/05/10 07:26:58;;;;;;;1.75;1.15;;;;;;;;;;4951525;28;20441;-63
2022/05/10 07:29:23;;;;;;;2.78;1.52;;;;;;;;;;4950865;28;20445;-63
2022/05/10 07:31:49;;;;;;;2.65;1.25;;;;;;;;;;4952486;28;20397;-64
2022/05/10 07:34:15;;;;;;;3.47;1.30;;;;;;;;;;4950315;28;20353;-63
2022/05/10 07:36:41;;;;;;;2.17;1.20;;;;;;;;;;4950615;28;20410;-63
2022/05/10 07:39:09;;;;;;;1.77;1.23;;;;;;;;;;4951976;28;20485;-63
2022/05/10 07:41:34;;;;;;;2.33;1.20;;;;;;;;;;4951078;28;20433;-63
2022/05/10 07:44:00;;;;;;;1.85;1.13;;;;;;;;;;4932898;28;20400;-63
2022/05/10 07:46:26;;;;;;;1.85;1.55;;;;;;;;;;4950720;28;20492;-63
2022/05/10 07:48:51;;;;;;;2.25;1.52;;;;;;;;;;4950761;28;20418;-64
2022/05/10 07:51:18;;;;;;;3.60;1.40;;;;;;;;;;4950516;28;20389;-62
2022/05/10 07:53:44;;;;;;;2.38;1.17;;;;;;;;;;4950443;28;20407;-63
2022/05/10 07:56:10;;;;;;;1.70;1.00;;;;;;;;;;4949975;28;20484;-62
2022/05/10 07:58:36;;;;;;;1.83;1.20;;;;;;;;;;4950335;28;20400;-63
2022/05/10 08:01:03;;;;;;;2.13;1.08;;;;;;;;;;4932473;28;20457;-63
2022/05/10 08:03:31;;;;;;;1.15;1.00;;;;;;;;;;4951250;28;20046;-63
2022/05/10 08:05:56;;;;;;;1.77;1.00;;;;;;;;;;4951073;28;20505;-63
2022/05/10 08:08:27;;;;;;;2.25;1.20;;;;;;;;;;4950463;28;20571;-63
2022/05/10 08:10:53;;;;;;;2.78;1.30;;;;;;;;;;4950008;28;20389;-63
2022/05/10 08:13:24;;;;;;;1.58;0.95;;;;;;;;;;4933273;28;20330;-63
2022/05/10 08:15:50;;;;;;;1.48;1.00;;;;;;;;;;4949917;28;20455;-62
2022/05/10 08:18:17;;;;;;;1.88;1.20;;;;;;;;;;4949697;28;20125;-63
2022/05/10 08:20:43;;;;;;;1.85;1.20;;;;;;;;;;4949681;28;20543;-62
2022/05/10 08:23:15;;;;;;;1.33;1.10;;;;;;;;;;4950057;28;20417;-62
2022/05/10 08:25:41;;;;;;;1.38;1.13;;;;;;;;;;4931883;28;20465;-62
2022/05/10 08:28:13;;;;;;;2.20;1.05;;;;;;;;;;4950795;28;20380;-62
2022/05/10 08:30:46;;;;;;;1.40;1.02;;;;;;;;;;4949630;28;20469;-62
2022/05/10 08:33:23;;;;;;;2.45;1.05;;;;;;;;;;4949600;28;20494;-62
2022/05/10 08:35:49;;;;;;;2.22;0.90;;;;;;;;;;4949881;28;20414;-63
2022/05/10 08:38:15;;;;;;;1.70;1.00;;;;;;;;;;4948533;28;20409;-64
2022/05/10 08:40:52;;;;;;;1.50;0.98;;;;;;;;;;4931976;28;20112;-63
2022/05/10 08:43:22;;;;;;;1.05;0.90;;;;;;;;;;4949868;28;20429;-62
2022/05/10 08:45:47;;;;;;;2.50;1.30;;;;;;;;;;4932767;28;20437;-62
2022/05/10 08:48:13;;;;;;;1.33;1.10;;;;;;;;;;4949713;28;20452;-62
2022/05/10 08:50:40;;;;;;;1.50;0.90;;;;;;;;;;4949653;28;20438;-63
2022/05/10 08:53:07;;;;;;;1.67;0.95;;;;;;;;;;4949381;28;20453;-64
2022/05/10 08:55:38;;;;;;;1.40;1.05;;;;;;;;;;4949321;28;20528;-62
2022/05/10 08:58:12;;;;;;;3.03;1.13;;;;;;;;;;4932275;28;20457;-64
2022/05/10 09:00:51;;;;;;;1.45;1.10;;;;;;;;;;4932049;28;20472;-63
2022/05/10 09:03:30;;;;;;;2.00;0.85;;;;;;;;;;4946575;28;20520;-62
2022/05/10 09:06:01;;;;;;;1.67;1.20;;;;;;;;;;4950096;28;20400;-62
2022/05/10 09:08:45;;;;;;;1.83;1.23;;;;;;;;;;4949728;28;20429;-62
2022/05/10 09:11:13;;;;;;;1.90;1.10;;;;;;;;;;4951101;28;20537;-62
2022/05/10 09:13:40;;;;;;;2.38;1.02;;;;;;;;;;4949863;28;20437;-63
2022/05/10 09:16:09;;;;;;;2.10;1.17;;;;;;;;;;4931333;28;20449;-64
2022/05/10 09:18:45;;;;;;;1.25;0.95;;;;;;;;;;4949654;28;20433;-63
2022/05/10 09:21:34;;;;;;;1.52;1.13;;;;;;;;;;4949401;28;20469;-63
2022/05/10 09:24:08;;;;;;;;;;;;;;;;;;4932308;28;20105;-63
2022/05/10 09:26:48;;;;;;;1.48;0.90;;;;;;;;;;4949763;28;20338;-64
2022/05/10 09:29:30;;;;;;;0.93;0.77;;;;;;;;;;4949580;28;20411;-62
2022/05/10 09:34:46;;;;;;;1.42;1.00;;;;;;;;;;4950374;28;20544;-63
2022/05/10 09:37:23;;;;;;;1.38;0.95;;;;;;;;;;4947584;28;20338;-63
2022/05/10 09:39:57;;;;;;;1.58;1.10;;;;;;;;;;4949584;28;20104;-62
2022/05/10 09:42:33;;;;;;;1.80;1.00;;;;;;;;;;4949006;28;20303;-62
2022/05/10 09:45:03;;;;;;;2.10;1.10;;;;;;;;;;4951436;28;20359;-63
2022/05/10 09:47:30;;;;;;;1.75;1.00;;;;;;;;;;4953652;28;20448;-62
2022/05/10 09:50:13;;;;;;;1.15;1.00;;;;;;;;;;4952922;28;20322;-64
2022/05/10 09:52:39;;;;;;;1.88;1.25;;;;;;;;;;4954572;28;20424;-63
2022/05/10 09:55:10;;;;;;;1.15;0.88;;;;;;;;;;4952976;28;20322;-63
2022/05/10 09:57:38;;;;;;;2.38;1.00;;;;;;;;;;4935006;28;20432;-62
2022/05/10 10:00:06;;;;;;;1.52;0.85;;;;;;;;;;4952775;28;20030;-62
2022/05/10 10:02:37;;;;;;;2.30;1.25;;;;;;;;;;4952387;28;20459;-62
2022/05/10 10:05:26;;;;;;;1.60;0.93;;;;;;;;;;4952836;28;20337;-64
2022/05/10 10:07:54;;;;;;;1.35;1.00;;;;;;;;;;4934636;28;20455;-62
2022/05/10 10:10:29;;;;;;;1.77;1.15;;;;;;;;;;4952538;28;20057;-63
2022/05/10 10:12:54;;;;;;;2.55;0.80;;;;;;;;;;4952298;28;20504;-63
2022/05/10 10:15:29;;;;;;;1.60;1.00;;;;;;;;;;4934816;28;20457;-62
2022/05/10 10:17:58;;;;;;;1.33;1.08;;;;;;;;;;4951800;28;20365;-65
2022/05/10 10:20:36;;;;;;;1.63;1.23;;;;;;;;;;4934606;28;20340;-63
2022/05/10 10:23:07;;;;;;;1.08;0.70;;;;;;;;;;4934157;28;20370;-64
2022/05/10 10:25:44;;;;;;;1.70;1.20;;;;;;;;;;4934703;28;20465;-63
2022/05/10 10:28:33;;;;;;;1.25;0.88;;;;;;;;;;4934116;28;20552;-63
2022/05/10 10:31:06;;;;;;;1.67;1.02;;;;;;;;;;4934475;28;20377;-63
2022/05/10 10:33:39;;;;;;;3.83;1.10;;;;;;;;;;4934320;28;20352;-62
2022/05/10 10:36:12;;;;;;;1.40;0.80;;;;;;;;;;4934943;28;20033;-63
2022/05/10 10:38:46;;;;;;;2.35;1.05;;;;;;;;;;4934543;28;20044;-63
2022/05/10 10:41:18;;;;;;;1.92;1.15;;;;;;;;;;4951611;28;20421;-63
2022/05/10 10:43:53;;;;;;;1.40;1.13;;;;;;;;;;4934947;28;20353;-62
2022/05/10 10:46:32;;;;;;;1.08;0.90;;;;;;;;;;4951593;28;20503;-63
2022/05/10 10:49:16;;;;;;;0.90;0.70;;;;;;;;;;4933989;28;20315;-62
2022/05/10 10:51:41;;;;;;;1.25;0.95;;;;;;;;;;4933858;28;20465;-63
2022/05/10 10:54:13;;;;;;;1.40;0.90;;;;;;;;;;4951948;28;20492;-63
2022/05/10 10:57:04;;;;;;;1.45;1.13;;;;;;;;;;4932821;28;20054;-63
2022/05/10 11:00:03;;;;;;;1.48;0.88;;;;;;;;;;4952358;28;20025;-63
2022/05/10 11:02:56;;;;;;;3.10;1.20;;;;;;;;;;4948309;28;20457;-63
2022/05/10 11:05:46;;;;;;;1.27;0.85;;;;;;;;;;4951760;28;20524;-63
2022/05/10 11:08:18;;;;;;;1.98;0.90;;;;;;;;;;4951031;28;20359;-63
2022/05/10 11:11:05;;;;;;;1.42;0.90;;;;;;;;;;4933444;28;20384;-63
2022/05/10 11:13:58;;;;;;;3.60;1.00;;;;;;;;;;4951118;28;20471;-63
2022/05/10 11:16:51;;;;;;;1.63;0.98;;;;;;;;;;4950564;28;20337;-63
2022/05/10 11:19:35;;;;;;;1.30;0.90;;;;;;;;;;4951005;28;20376;-63
2022/05/10 11:22:36;;;;;;;1.67;1.10;;;;;;;;;;4951795;28;20373;-64
2022/05/10 11:25:24;;;;;;;2.00;0.82;;;;;;;;;;4951912;28;20433;-63
2022/05/10 11:28:11;;;;;;;2.55;0.80;;;;;;;;;;4931519;28;20038;-64
2022/05/10 11:30:50;;;;;;;1.23;0.80;;;;;;;;;;4951049;28;20176;-64
2022/05/10 11:33:25;;;;;;;1.85;0.73;;;;;;;;;;4933194;28;20346;-63
2022/05/10 11:35:57;;;;;;;1.63;0.80;;;;;;;;;;4933055;28;20422;-65
2022/05/10 11:38:47;;;;;;;1.10;0.88;;;;;;;;;;4933385;28;20457;-63
2022/05/10 11:41:27;;;;;;;0.90;0.73;;;;;;;;;;4950368;28;20353;-63
2022/05/10 11:44:17;;;;;;;0.95;0.85;;;;;;;;;;4932970;28;20460;-63
2022/05/10 11:47:17;;;;;;;1.25;0.88;;;;;;;;;;4950471;28;20458;-63
2022/05/10 11:50:20;;;;;;;1.63;1.00;;;;;;;;;;4951194;28;20341;-63
2022/05/10 11:53:06;;;;;;;1.08;0.77;;;;;;;;;;4933423;28;20345;-63
2022/05/10 11:55:55;;;;;;;4.35;0.93;;;;;;;;;;4932848;28;20099;-64
2022/05/10 11:58:23;;;;;;;3.22;1.13;;;;;;;;;;4950561;28;20053;-63
2022/05/10 12:00:57;;;;;;;1.67;1.00;;;;;;;;;;4932320;28;20349;-63
2022/05/10 12:03:43;;;;;;;0.95;0.80;;;;;;;;;;4950907;28;20101;-64
2022/05/10 12:06:24;;;;;;;2.38;0.88;;;;;;;;;;4950654;28;20349;-63
2022/05/10 12:08:54;;;;;;;1.90;0.90;;;;;;;;;;4932164;28;20412;-63
2022/05/10 12:11:30;;;;;;;1.65;0.90;;;;;;;;;;4951967;28;20291;-63
2022/05/10 12:22:45;;;;;;;5.47;1.00;;;;;;;;;;4948567;28;20441;-63
2022/05/10 12:25:51;;;;;;;2.10;0.85;;;;;;;;;;4950017;28;20508;-63
2022/05/10 12:28:40;;;;;;;1.65;1.15;;;;;;;;;;4947681;28;20416;-63
2022/05/10 12:31:47;;;;;;;1.73;1.00;;;;;;;;;;4949360;28;20986;-63
2022/05/10 12:34:54;;;;;;;1.25;1.00;;;;;;;;;;4908763;28;20438;-63
2022/05/10 12:37:24;;;;;;;1.05;0.88;;;;;;;;;;4948401;28;20307;-62
2022/05/10 12:40:05;;;;;;;1.63;1.00;;;;;;;;;;4949112;28;20457;-63
2022/05/10 12:42:43;;;;;;;0.75;0.65;;;;;;;;;;4932414;28;20318;-62
2022/05/10 12:45:38;;;;;;;1.30;0.82;;;;;;;;;;4948329;28;20388;-65
2022/05/10 12:48:03;;;;;;;1.05;0.90;;;;;;;;;;4950359;28;20512;-64
2022/05/10 12:50:50;;;;;;;1.10;1.00;;;;;;;;;;4949618;28;20345;-63
2022/05/10 12:53:25;;;;;;;1.08;0.90;;;;;;;;;;4949543;28;20504;-63
2022/05/10 12:56:06;;;;;;;1.10;0.80;;;;;;;;;;4949459;28;20473;-62
2022/05/10 12:58:36;;;;;;;0.82;0.60;;;;;;;;;;4931608;28;20429;-64
2022/05/10 13:01:02;;;;;;;2.53;0.70;;;;;;;;;;4931685;28;20460;-63
2022/05/10 13:03:36;;;;;;;2.33;0.90;;;;;;;;;;4932136;28;20437;-62
2022/05/10 13:06:35;;;;;;;1.63;0.80;;;;;;;;;;4949393;28;20457;-63
2022/05/10 13:09:16;;;;;;;3.03;0.90;;;;;;;;;;4949833;28;20100;-62
2022/05/10 13:11:56;;;;;;;1.27;0.70;;;;;;;;;;4949190;28;20445;-63
2022/05/10 13:14:22;;;;;;;3.78;1.20;;;;;;;;;;4949760;28;20450;-63
2022/05/10 13:16:51;;;;;;;1.10;0.90;;;;;;;;;;4931555;28;20454;-62
2022/05/10 13:19:18;;;;;;;3.80;1.00;;;;;;;;;;4950189;28;20038;-63
2022/05/10 13:21:43;;;;;;;1.60;0.80;;;;;;;;;;4955113;28;20540;-63
2022/05/10 13:24:12;;;;;;;1.85;0.90;;;;;;;;;;4935580;28;20529;-63
2022/05/10 13:26:52;;;;;;;1.30;0.77;;;;;;;;;;4935423;28;20507;-63
2022/05/10 13:29:19;;;;;;;1.88;0.80;;;;;;;;;;4953808;28;20512;-64
2022/05/10 13:31:45;;;;;;;1.90;0.93;;;;;;;;;;4935640;28;20333;-63
2022/05/10 13:34:17;;;;;;;2.15;0.90;;;;;;;;;;4953077;28;20096;-62
2022/05/10 13:36:48;;;;;;;1.42;0.80;;;;;;;;;;4919049;28;20497;-63
2022/05/10 13:39:23;;;;;;;1.20;0.90;;;;;;;;;;4919206;28;20341;-62
2022/05/10 13:41:48;;;;;;;1.08;0.82;;;;;;;;;;4953083;28;20326;-62
2022/05/10 13:44:19;;;;;;;2.28;0.93;;;;;;;;;;4953117;28;20365;-63
2022/05/10 13:46:57;;;;;;;0.80;0.60;;;;;;;;;;4935126;28;20038;-62
2022/05/10 13:49:25;;;;;;;0.98;0.77;;;;;;;;;;4949434;28;20096;-63
2022/05/10 13:51:52;;;;;;;;;;;;;;;;;;4953734;28;20313;-62
2022/05/10 13:54:34;;;;;;;1.30;1.00;;;;;;;;;;4935127;28;19943;-63
2022/05/10 13:57:30;;;;;;;1.65;0.80;;;;;;;;;;4936326;28;20543;-63
2022/05/10 13:59:58;;;;;;;1.33;0.88;;;;;;;;;;4952958;28;20417;-64
2022/05/10 14:02:26;;;;;;;0.98;0.75;;;;;;;;;;4952546;28;20465;-62
2022/05/10 14:04:53;;;;;;;2.58;1.08;;;;;;;;;;4952147;28;20430;-62
2022/05/10 14:07:25;;;;;;;1.15;0.75;;;;;;;;;;4934961;28;20038;-64
2022/05/10 14:09:53;;;;;;;1.80;0.90;;;;;;;;;;4952040;28;20378;-62
2022/05/10 14:12:27;;;;;;;2.85;1.20;;;;;;;;;;4952543;28;20442;-63
2022/05/10 14:14:52;;;;;;;1.90;1.10;;;;;;;;;;4953474;28;20072;-63
2022/05/10 14:17:18;;;;;;;2.17;0.88;;;;;;;;;;4951744;28;20137;-63
2022/05/10 14:19:45;;;;;;;3.35;0.95;;;;;;;;;;4952896;28;20344;-63
2022/05/10 14:22:18;;;;;;;2.08;0.98;;;;;;;;;;4951828;28;20389;-62
2022/05/10 14:24:45;;;;;;;1.60;0.95;;;;;;;;;;4933920;28;20448;-63
2022/05/10 14:27:18;;;;;;;1.13;0.88;;;;;;;;;;4933893;28;20366;-63
2022/05/10 14:29:46;;;;;;;1.55;1.20;;;;;;;;;;4951081;28;20527;-63
2022/05/10 14:32:30;;;;;;;1.00;0.90;;;;;;;;;;4951160;28;20449;-62
2022/05/10 14:35:07;;;;;;;2.85;1.33;;;;;;;;;;4951110;28;20506;-62
2022/05/10 14:37:41;;;;;;;1.20;0.90;;;;;;;;;;4951424;28;20349;-63
2022/05/10 14:40:28;;;;;;;1.48;0.80;;;;;;;;;;4953093;28;20026;-63
2022/05/10 14:42:57;;;;;;;2.63;1.30;;;;;;;;;;4951693;28;20388;-62
2022/05/10 14:45:25;;;;;;;2.42;1.02;;;;;;;;;;4951381;28;20441;-63
2022/05/10 14:47:54;;;;;;;1.50;0.90;;;;;;;;;;4951739;28;20401;-63
2022/05/10 14:50:30;;;;;;;;;;;;;;;;;;4952073;28;20357;-64
2022/05/10 14:53:10;;;;;;;1.00;0.85;;;;;;;;;;4951680;28;20031;-63
2022/05/10 14:55:36;;;;;;;1.25;0.98;;;;;;;;;;4951770;28;20069;-62
2022/05/10 14:58:01;;;;;;;1.10;0.90;;;;;;;;;;4952360;28;20491;-63
2022/05/10 15:03:18;;;;;;;5.72;1.45;;;;;;;;;;4950711;28;20421;-63
2022/05/10 15:05:45;;;;;;;1.10;0.90;;;;;;;;;;4950934;28;20389;-62
2022/05/10 15:08:11;;;;;;;2.72;1.17;;;;;;;;;;4950692;28;20449;-62
2022/05/10 15:10:37;;;;;;;2.80;1.00;;;;;;;;;;4950510;28;20462;-62
2022/05/10 15:13:03;;;;;;;4.75;1.88;;;;;;;;;;4950957;28;20148;-63
2022/05/10 15:15:33;;;;;;;5.28;2.17;;;;;;;;;;4950817;28;20508;-63
2022/05/10 15:20:43;;;;;;;5.07;2.63;;;;;;;;;;4936873;28;20540;-63
2022/05/10 15:23:08;;;;;;;8.45;2.60;;;;;;;;;;4951084;28;20377;-63
2022/05/10 15:25:34;;;;;;;6.32;2.70;;;;;;;;;;4951264;28;20443;-63
2022/05/10 15:27:59;;;;;;;5.47;2.25;;;;;;;;;;4932941;28;20530;-62
2022/05/10 15:30:25;;;;;;;10.25;2.47;;;;;;;;;;4951840;28;20401;-63
2022/05/10 15:32:51;;;;;;;3.58;2.03;;;;;;;;;;4953266;28;20414;-63
2022/05/10 15:35:16;;;;;;;5.78;3.00;;;;;;;;;;4951310;28;20501;-62